Time;durP1;ratioP1;P1;durP2;ratioP2;P2;SDS_P1;SDS_P2;PMS_P1;PMS_P2;Temp;Humidity;BMP_temperature;BMP_pressure;BME280_temperature;BME280_humidity;BME280_pressure;Samples;Min_cycle;Max_cycle;Signal;HPM_P1;HPM_P2
2022/10/08 00:02:52;;;;;;;11.43;4.35;;;;;;;7.79;100.00;101491.16;10357736;28;20044;-79
2022/10/08 00:07:53;;;;;;;17.50;4.28;;;;;;;7.68;100.00;101492.13;10360508;28;20037;-79
2022/10/08 00:12:53;;;;;;;24.63;6.07;;;;;;;7.67;100.00;101487.72;10356768;28;20042;-79
2022/10/08 00:17:54;;;;;;;9.02;4.28;;;;;;;7.68;100.00;101481.72;10358494;28;20044;-77
2022/10/08 00:22:55;;;;;;;14.18;5.68;;;;;;;7.74;100.00;101474.31;10359274;28;20489;-79
2022/10/08 00:27:55;;;;;;;14.25;4.45;;;;;;;7.78;100.00;101469.44;10342530;28;20605;-78
2022/10/08 00:32:57;;;;;;;20.35;4.97;;;;;;;7.81;100.00;101470.44;10356850;28;20128;-78
2022/10/08 00:37:57;;;;;;;13.57;5.67;;;;;;;7.84;100.00;101468.03;10359352;28;20125;-78
2022/10/08 00:42:59;;;;;;;12.48;4.07;;;;;;;7.87;100.00;101457.84;10356442;28;20237;-78
2022/10/08 00:47:59;;;;;;;12.30;5.32;;;;;;;7.93;100.00;101458.25;10357330;28;20061;-78
2022/10/08 00:53:02;;;;;;;14.18;5.15;;;;;;;7.89;100.00;101461.44;10322384;28;20069;-79
2022/10/08 00:58:06;;;;;;;24.27;5.30;;;;;;;8.06;100.00;101459.97;10341569;28;20038;-79
2022/10/08 01:03:07;;;;;;;20.02;5.20;;;;;;;8.11;100.00;101457.69;10339805;28;20512;-78
2022/10/08 01:08:40;;;;;;;13.23;4.07;;;;;;;7.99;100.00;101449.91;10356810;28;20050;-79
2022/10/08 01:14:12;;;;;;;11.68;3.80;;;;;;;8.25;100.00;101456.91;10333229;28;20520;-78
2022/10/08 01:19:30;;;;;;;10.20;3.73;;;;;;;8.69;100.00;101447.59;10328172;28;20066;-79
2022/10/08 01:30:15;;;;;;;12.10;3.08;;;;;;;9.09;100.00;101447.53;10355659;28;20525;-78
2022/10/08 01:35:23;;;;;;;9.80;4.22;;;;;;;9.24;100.00;101436.22;10354970;28;20490;-78
2022/10/08 01:40:28;;;;;;;8.95;4.00;;;;;;;9.49;100.00;101437.75;10340995;28;20038;-79
2022/10/08 01:45:39;;;;;;;16.10;4.43;;;;;;;9.72;99.17;101441.78;10325173;28;20401;-79
2022/10/08 01:50:52;;;;;;;10.63;3.30;;;;;;;9.82;99.36;101437.97;10338755;28;20124;-78
2022/10/08 01:55:53;;;;;;;55.33;4.60;;;;;;;9.92;97.75;101435.09;10346262;28;20053;-76
2022/10/08 02:00:55;;;;;;;8.60;3.55;;;;;;;9.92;99.19;101432.50;10345541;28;20034;-77
2022/10/08 02:05:55;;;;;;;25.25;4.68;;;;;;;10.08;97.82;101438.63;10332381;28;20490;-77
2022/10/08 02:10:56;;;;;;;6.78;3.28;;;;;;;10.09;98.46;101449.19;10346746;28;20152;-77
2022/10/08 02:16:04;;;;;;;14.60;3.33;;;;;;;10.03;100.00;101459.28;10362037;28;20129;-77
2022/10/08 02:21:11;;;;;;;12.82;4.55;;;;;;;9.89;100.00;101465.41;10344778;28;20121;-77
2022/10/08 02:26:18;;;;;;;9.15;4.30;;;;;;;9.73;100.00;101476.63;10345891;28;20048;-78
2022/10/08 02:31:34;;;;;;;16.10;5.57;;;;;;;9.57;100.00;101485.25;10358109;28;20128;-78
2022/10/08 02:36:37;;;;;;;10.35;4.90;;;;;;;9.51;100.00;101488.38;10358739;28;20119;-78
2022/10/08 02:41:41;;;;;;;7.85;4.40;;;;;;;9.52;100.00;101487.59;10343840;28;20030;-79
2022/10/08 02:46:43;;;;;;;15.20;4.90;;;;;;;9.54;100.00;101488.56;10344856;28;20132;-78
2022/10/08 02:51:50;;;;;;;11.40;4.15;;;;;;;9.65;100.00;101486.63;10341494;28;20497;-79
2022/10/08 02:56:57;;;;;;;13.60;5.90;;;;;;;9.68;100.00;101485.09;10360822;28;20070;-79
2022/10/08 03:02:02;;;;;;;24.40;7.00;;;;;;;9.73;100.00;101501.09;10360499;28;20049;-78
2022/10/08 03:07:04;;;;;;;14.85;5.60;;;;;;;9.77;100.00;101495.22;10343814;28;20131;-79
2022/10/08 03:12:05;;;;;;;18.42;5.13;;;;;;;9.81;100.00;101478.00;10343036;28;20172;-77
2022/10/08 03:17:10;;;;;;;18.30;8.85;;;;;;;9.76;100.00;101496.03;10340161;28;20410;-79
2022/10/08 03:22:10;;;;;;;16.58;7.43;;;;;;;9.73;100.00;101497.53;10341513;28;20030;-80
2022/10/08 03:27:12;;;;;;;16.63;6.53;;;;;;;9.69;100.00;101491.25;10357680;28;20105;-80
2022/10/08 03:32:12;;;;;;;14.07;5.83;;;;;;;9.71;100.00;101492.25;10342874;28;20494;-84
2022/10/08 03:37:13;;;;;;;19.67;7.15;;;;;;;9.69;100.00;101492.13;10357968;28;20173;-82
2022/10/08 03:42:13;;;;;;;13.55;7.22;;;;;;;9.65;100.00;101484.91;10359280;28;20398;-82
2022/10/08 03:47:14;;;;;;;18.15;7.30;;;;;;;9.64;100.00;101506.63;10341731;28;20137;-84
2022/10/08 03:52:14;;;;;;;14.40;6.65;;;;;;;9.62;100.00;101516.09;10355690;28;20367;-80
2022/10/08 03:57:15;;;;;;;16.35;8.60;;;;;;;9.63;100.00;101510.06;10356736;28;20498;-83
2022/10/08 04:02:16;;;;;;;14.68;7.50;;;;;;;9.62;100.00;101517.81;10337008;28;20042;-80
2022/10/08 04:07:17;;;;;;;16.35;6.90;;;;;;;9.57;100.00;101522.75;10357686;28;20050;-81
2022/10/08 04:12:17;;;;;;;16.25;8.25;;;;;;;9.54;100.00;101510.41;10337016;28;20076;-83
2022/10/08 04:17:18;;;;;;;43.22;28.73;;;;;;;9.51;100.00;101514.53;10355716;28;20594;-84
2022/10/08 04:22:18;;;;;;;16.67;8.77;;;;;;;9.55;100.00;101509.59;10356273;28;20042;-84
2022/10/08 04:27:19;;;;;;;18.45;7.30;;;;;;;9.50;100.00;101516.25;10337865;28;20149;-81
2022/10/08 04:32:19;;;;;;;16.33;7.10;;;;;;;9.52;100.00;101511.09;10357767;28;20081;-82
2022/10/08 04:37:21;;;;;;;18.17;8.30;;;;;;;9.50;100.00;101513.63;10355713;28;20038;-83
2022/10/08 04:42:21;;;;;;;23.95;8.25;;;;;;;9.45;100.00;101525.50;10344234;28;20064;-83
2022/10/08 04:47:22;;;;;;;15.50;6.90;;;;;;;9.43;100.00;101514.06;10354234;28;20048;-86
2022/10/08 04:52:22;;;;;;;18.67;6.88;;;;;;;9.43;100.00;101527.13;10345921;28;20037;-81
2022/10/08 04:57:23;;;;;;;16.38;10.07;;;;;;;9.40;100.00;101533.03;10353447;28;20041;-82
2022/10/08 05:02:23;;;;;;;15.38;7.60;;;;;;;9.18;100.00;101548.16;10338049;28;20044;-86
2022/10/08 05:07:25;;;;;;;19.55;7.93;;;;;;;8.93;100.00;101550.09;10357714;28;20512;-86
2022/10/08 05:12:25;;;;;;;17.30;7.70;;;;;;;8.73;100.00;101563.53;10356347;28;20049;-86
2022/10/08 05:17:26;;;;;;;17.65;9.45;;;;;;;8.66;100.00;101572.66;10353700;28;20612;-84
2022/10/08 05:22:26;;;;;;;24.48;10.80;;;;;;;8.77;100.00;101578.59;10349192;28;20076;-87
2022/10/08 05:27:27;;;;;;;17.45;11.10;;;;;;;8.98;100.00;101592.16;10351118;28;20046;-77
2022/10/08 05:32:28;;;;;;;25.13;11.10;;;;;;;9.18;100.00;101584.72;10341315;28;20159;-83
2022/10/08 05:37:28;;;;;;;23.30;15.32;;;;;;;9.37;100.00;101595.53;10362676;28;20038;-83
2022/10/08 05:42:28;;;;;;;30.20;17.40;;;;;;;9.42;100.00;101594.94;10364637;28;20034;-80
2022/10/08 05:47:29;;;;;;;43.60;23.70;;;;;;;9.51;100.00;101606.91;10361409;28;20068;-78
2022/10/08 05:52:30;;;;;;;47.42;24.30;;;;;;;9.63;100.00;101609.38;10362224;28;20397;-81
2022/10/08 05:57:30;;;;;;;48.92;25.55;;;;;;;9.74;100.00;101611.75;10362483;28;20048;-81
2022/10/08 06:02:31;;;;;;;55.00;30.27;;;;;;;9.77;100.00;101615.47;10365100;28;20136;-82
2022/10/08 06:07:32;;;;;;;52.85;29.05;;;;;;;9.84;100.00;101622.91;10362094;28;20042;-83
2022/10/08 06:12:35;;;;;;;57.70;27.77;;;;;;;9.92;100.00;101632.94;10363407;28;20049;-82
2022/10/08 06:17:35;;;;;;;47.33;28.73;;;;;;;9.91;100.00;101647.72;10362298;28;20068;-82
2022/10/08 06:22:36;;;;;;;58.75;31.77;;;;;;;9.96;100.00;101658.47;10359985;28;20044;-81
2022/10/08 06:27:39;;;;;;;58.88;31.67;;;;;;;10.06;100.00;101662.56;10362479;28;20545;-83
2022/10/08 06:32:40;;;;;;;57.22;30.98;;;;;;;10.12;100.00;101668.16;10361407;28;20046;-83
2022/10/08 06:37:40;;;;;;;52.72;31.58;;;;;;;10.11;100.00;101677.75;10321628;28;20054;-80
2022/10/08 06:42:41;;;;;;;61.60;32.38;;;;;;;10.14;100.00;101684.88;10347405;28;20116;-82
2022/10/08 06:47:41;;;;;;;60.55;31.33;;;;;;;10.18;100.00;101684.25;10360802;28;20045;-82
2022/10/08 06:52:45;;;;;;;56.00;28.27;;;;;;;10.31;100.00;101692.84;10359672;28;20053;-81
2022/10/08 06:57:45;;;;;;;54.67;28.08;;;;;;;10.55;100.00;101702.25;10361906;28;20531;-82
2022/10/08 07:02:46;;;;;;;51.65;27.48;;;;;;;10.66;100.00;101716.00;10362866;28;20038;-82
2022/10/08 07:07:47;;;;;;;47.58;23.95;;;;;;;10.67;100.00;101719.50;10360562;28;20497;-81
2022/10/08 07:12:47;;;;;;;50.38;25.75;;;;;;;10.71;100.00;101731.97;10357479;28;20401;-86
2022/10/08 07:17:48;;;;;;;53.50;26.33;;;;;;;10.85;100.00;101740.69;10360478;28;20061;-86
2022/10/08 07:22:49;;;;;;;41.38;24.38;;;;;;;10.97;100.00;101744.06;10363144;28;20540;-86
2022/10/08 07:27:49;;;;;;;44.17;24.05;;;;;;;11.21;100.00;101751.56;10360511;28;20117;-84
2022/10/08 07:32:53;;;;;;;45.78;26.83;;;;;;;11.41;100.00;101764.94;10362710;28;20052;-87
2022/10/08 07:37:53;;;;;;;35.80;21.98;;;;;;;11.63;100.00;101763.56;10360945;28;20030;-87
2022/10/08 07:42:54;;;;;;;41.92;23.48;;;;;;;11.72;100.00;101767.59;10361213;28;20546;-86
2022/10/08 07:47:54;;;;;;;43.53;25.52;;;;;;;11.77;100.00;101766.97;10359407;28;20120;-86
2022/10/08 07:52:55;;;;;;;38.28;21.08;;;;;;;11.77;100.00;101772.22;10362668;28;20052;-85
2022/10/08 07:57:55;;;;;;;34.47;20.38;;;;;;;11.83;100.00;101770.84;10359181;28;20030;-84
2022/10/08 08:02:56;;;;;;;36.97;18.77;;;;;;;12.02;100.00;101782.44;10359892;28;20053;-85
2022/10/08 08:07:56;;;;;;;40.78;19.58;;;;;;;12.23;100.00;101797.56;10360293;28;20068;-85
2022/10/08 08:12:57;;;;;;;60.40;15.32;;;;;;;12.69;100.00;101799.16;10359383;28;20498;-83
2022/10/08 08:17:57;;;;;;;23.73;12.63;;;;;;;13.14;100.00;101807.69;10359001;28;20042;-81
2022/10/08 08:22:58;;;;;;;20.10;10.30;;;;;;;13.22;99.77;101814.25;10360110;28;20115;-82
2022/10/08 08:27:58;;;;;;;14.82;9.02;;;;;;;13.44;95.87;101822.38;10358385;28;20029;-83
2022/10/08 08:32:59;;;;;;;16.58;8.30;;;;;;;13.47;94.58;101833.94;10356901;28;20115;-82
2022/10/08 08:37:59;;;;;;;14.88;9.13;;;;;;;13.34;96.72;101839.38;10358538;28;20060;-81
2022/10/08 08:43:00;;;;;;;18.60;7.82;;;;;;;13.53;93.41;101835.09;10356421;28;20048;-83
2022/10/08 08:48:05;;;;;;;16.65;7.35;;;;;;;13.60;93.03;101843.38;10356554;28;20041;-81
2022/10/08 08:53:07;;;;;;;10.70;6.68;;;;;;;13.84;90.55;101848.06;10358247;28;20501;-82
2022/10/08 08:58:33;;;;;;;12.07;5.25;;;;;;;14.27;88.69;101845.75;10339198;28;20512;-82
2022/10/08 09:03:40;;;;;;;18.30;7.22;;;;;;;14.75;85.13;101851.56;10358330;28;20130;-82
2022/10/08 09:09:08;;;;;;;27.75;7.97;;;;;;;15.20;80.88;101866.75;10354927;28;20087;-81
2022/10/08 09:14:10;;;;;;;11.07;5.32;;;;;;;14.93;81.17;101880.47;10357276;28;20038;-81
2022/10/08 09:19:11;;;;;;;8.85;4.45;;;;;;;14.48;81.06;101882.72;10356379;28;20038;-82
2022/10/08 09:24:11;;;;;;;10.70;3.45;;;;;;;13.82;81.51;101880.38;10357253;28;20170;-82
2022/10/08 09:29:30;;;;;;;11.77;3.70;;;;;;;13.80;83.46;101897.00;10323707;28;20058;-81
2022/10/08 09:34:30;;;;;;;13.60;4.15;;;;;;;14.28;80.34;101894.94;10357160;28;20033;-81
2022/10/08 09:39:36;;;;;;;10.35;3.22;;;;;;;15.62;74.90;101907.22;10338834;28;20034;-83
2022/10/08 09:44:49;;;;;;;5.75;1.80;;;;;;;16.26;68.99;101909.09;10357758;28;20050;-81
2022/10/08 09:50:04;;;;;;;7.35;2.05;;;;;;;19.98;56.91;101903.72;10356010;28;20037;-80
2022/10/08 09:55:12;;;;;;;8.90;2.45;;;;;;;22.55;48.80;101915.94;10355621;28;20041;-82
2022/10/08 10:00:42;;;;;;;5.25;1.88;;;;;;;21.45;46.79;101914.06;10339419;28;20441;-82
2022/10/08 10:05:42;;;;;;;5.10;1.35;;;;;;;18.67;51.04;101916.81;10346224;28;20046;-83
2022/10/08 10:10:47;;;;;;;4.10;2.17;;;;;;;19.95;48.73;101936.38;10354983;28;20042;-81
2022/10/08 10:16:01;;;;;;;8.82;2.13;;;;;;;18.24;50.96;101938.44;10340029;28;20061;-81
2022/10/08 10:21:07;;;;;;;7.15;3.55;;;;;;;16.49;55.92;101940.84;10354934;28;20030;-80
2022/10/08 10:26:20;;;;;;;7.75;1.92;;;;;;;15.55;57.76;101943.91;10327410;28;20081;-82
2022/10/08 10:31:53;;;;;;;6.93;2.35;;;;;;;14.33;63.01;101943.47;10361767;28;20057;-81
2022/10/08 10:36:58;;;;;;;5.18;1.50;;;;;;;15.87;60.27;101943.56;10328900;28;20481;-84
2022/10/08 10:41:58;;;;;;;4.80;1.52;;;;;;;18.92;52.05;101943.22;10346640;28;20046;-79
2022/10/08 10:46:59;;;;;;;8.38;2.95;;;;;;;21.24;45.95;101952.69;10361764;28;20147;-79
2022/10/08 10:52:20;;;;;;;6.13;2.22;;;;;;;22.27;41.60;101954.59;10345223;28;20120;-82
2022/10/08 10:57:55;;;;;;;8.90;2.05;;;;;;;19.03;46.41;101953.28;10361846;28;20129;-81
2022/10/08 11:03:23;;;;;;;5.18;2.25;;;;;;;15.88;56.24;101971.75;10362457;28;20073;-81
2022/10/08 11:08:33;;;;;;;14.73;2.42;;;;;;;18.12;52.77;101970.69;10362017;28;20524;-82
2022/10/08 11:13:34;;;;;;;5.75;1.73;;;;;;;21.32;43.20;101960.81;10344014;28;20069;-83
2022/10/08 11:18:48;;;;;;;6.65;1.05;;;;;;;21.86;37.12;101969.00;10358739;28;20593;-80
2022/10/08 11:24:10;;;;;;;7.22;1.77;;;;;;;23.48;36.83;101967.00;10355603;28;20050;-81
2022/10/08 11:29:25;;;;;;;3.97;1.25;;;;;;;23.11;36.62;101959.41;10363222;28;20038;-79
2022/10/08 11:34:33;;;;;;;3.70;1.10;;;;;;;23.30;38.45;101946.31;10360276;28;20113;-79
2022/10/08 11:39:58;;;;;;;8.23;1.80;;;;;;;22.84;36.88;101959.94;10361428;28;20120;-81
2022/10/08 11:45:27;;;;;;;4.97;1.10;;;;;;;18.61;45.03;101973.16;10359571;28;20474;-81
2022/10/08 11:50:31;;;;;;;4.47;1.73;;;;;;;17.00;51.47;101971.03;10346647;28;20029;-81
2022/10/08 11:55:32;;;;;;;6.20;1.92;;;;;;;21.22;42.96;101962.41;10360739;28;20038;-80
2022/10/08 12:00:35;;;;;;;6.38;1.45;;;;;;;22.70;38.35;101957.97;10343423;28;20038;-79
2022/10/08 12:05:46;;;;;;;6.13;2.35;;;;;;;24.23;37.22;101959.75;10360187;28;20081;-80
2022/10/08 12:10:46;;;;;;;4.78;1.60;;;;;;;24.26;35.38;101957.09;10327485;28;20049;-81
2022/10/08 12:15:49;;;;;;;7.82;1.23;;;;;;;23.37;34.94;101958.84;10359147;28;20057;-81
2022/10/08 12:21:14;;;;;;;4.53;1.25;;;;;;;23.58;35.63;101959.97;10361980;28;20045;-82
2022/10/08 12:26:15;;;;;;;3.95;1.60;;;;;;;21.23;38.99;101960.63;10360077;28;20490;-80
2022/10/08 12:31:38;;;;;;;6.38;2.05;;;;;;;22.78;37.40;101974.06;10359083;28;20041;-81
2022/10/08 12:37:00;;;;;;;4.03;1.60;;;;;;;21.82;36.18;101973.38;10357808;28;20069;-81
2022/10/08 12:42:06;;;;;;;4.83;1.13;;;;;;;21.48;42.42;101970.03;10358736;28;20030;-81
2022/10/08 12:47:27;;;;;;;4.85;1.10;;;;;;;21.85;38.48;101978.78;10358867;28;20291;-80
2022/10/08 12:52:32;;;;;;;5.28;1.45;;;;;;;22.44;37.38;101973.53;10360913;28;20042;-80
2022/10/08 12:57:33;;;;;;;6.03;2.47;;;;;;;22.76;36.86;101964.28;10356370;28;20457;-80
2022/10/08 13:02:35;;;;;;;3.30;1.23;;;;;;;23.77;35.55;101969.09;10359266;28;20045;-81
2022/10/08 13:07:36;;;;;;;;;;;;;;;24.15;34.92;101973.03;10358670;28;20049;-81
2022/10/08 13:12:36;;;;;;;5.57;1.97;;;;;;;22.64;35.05;101978.31;10358548;28;19933;-81
2022/10/08 13:17:37;;;;;;;3.08;1.30;;;;;;;21.48;36.55;101977.13;10358403;28;20277;-81
2022/10/08 13:22:37;;;;;;;8.05;1.63;;;;;;;22.11;37.32;101972.09;10358914;28;20034;-81
2022/10/08 13:27:39;;;;;;;6.07;1.30;;;;;;;19.86;40.37;101983.06;10357162;28;20034;-81
2022/10/08 13:32:39;;;;;;;2.90;1.00;;;;;;;16.63;48.25;101996.88;10357989;28;20034;-80
2022/10/08 13:37:40;;;;;;;9.25;2.17;;;;;;;16.87;48.86;101993.41;10340606;28;20089;-81
2022/10/08 13:42:48;;;;;;;4.05;1.80;;;;;;;19.15;46.01;101996.09;10358270;28;20030;-81
2022/10/08 13:47:48;;;;;;;5.18;2.25;;;;;;;20.53;40.42;101999.84;10355388;28;20042;-80
2022/10/08 13:52:53;;;;;;;3.50;1.38;;;;;;;19.50;41.81;102004.22;10361443;28;20037;-79
2022/10/08 13:57:54;;;;;;;4.15;1.40;;;;;;;16.86;47.57;102008.38;10362886;28;20426;-79
2022/10/08 14:02:54;;;;;;;12.40;1.75;;;;;;;18.29;47.53;102007.47;10366974;28;20442;-80
2022/10/08 14:07:57;;;;;;;5.07;1.30;;;;;;;21.10;41.39;102008.28;10365080;28;20184;-80
2022/10/08 14:12:57;;;;;;;6.38;1.40;;;;;;;21.88;38.77;102003.69;10332228;28;20036;-80
2022/10/08 14:17:58;;;;;;;7.22;1.50;;;;;;;21.99;37.38;101992.34;10361678;28;20030;-79
2022/10/08 14:22:58;;;;;;;16.90;1.95;;;;;;;21.26;40.69;101996.22;10362534;28;20044;-78
2022/10/08 14:27:59;;;;;;;4.28;1.42;;;;;;;20.03;41.27;101999.47;10360359;28;20120;-78
2022/10/08 14:33:00;;;;;;;2.05;0.90;;;;;;;19.01;43.60;102003.63;10346806;28;20038;-81
2022/10/08 14:38:00;;;;;;;7.20;1.80;;;;;;;17.52;47.14;102014.44;10360973;28;20061;-80
2022/10/08 14:43:01;;;;;;;6.50;1.25;;;;;;;19.19;44.53;102019.22;10363462;28;20065;-79
2022/10/08 14:48:01;;;;;;;3.22;1.58;;;;;;;20.56;43.04;102011.41;10361435;28;20480;-79
2022/10/08 14:53:02;;;;;;;5.68;1.13;;;;;;;21.49;39.60;102014.44;10363591;28;20037;-82
2022/10/08 14:58:03;;;;;;;5.03;0.95;;;;;;;21.47;37.29;102016.19;10343936;28;20474;-77
2022/10/08 15:03:04;;;;;;;3.00;1.02;;;;;;;21.20;38.21;102014.72;10361987;28;20053;-77
2022/10/08 15:08:04;;;;;;;6.13;1.23;;;;;;;20.16;38.79;102024.63;10362703;28;20382;-78
2022/10/08 15:13:05;;;;;;;5.85;2.30;;;;;;;17.90;43.21;102025.53;10356981;28;20545;-76
2022/10/08 15:18:05;;;;;;;5.53;1.48;;;;;;;16.99;46.27;102038.00;10360983;28;20141;-78
2022/10/08 15:23:06;;;;;;;8.50;5.28;;;;;;;16.66;47.63;102036.63;10348256;28;20120;-79
2022/10/08 15:28:07;;;;;;;5.95;2.05;;;;;;;16.18;50.45;102026.72;10357303;28;20048;-78
2022/10/08 15:33:10;;;;;;;5.43;1.90;;;;;;;16.35;50.60;102037.13;10358508;28;20044;-79
2022/10/08 15:38:17;;;;;;;3.78;1.15;;;;;;;15.85;50.70;102041.09;10357020;28;20363;-82
2022/10/08 15:43:18;;;;;;;4.60;1.00;;;;;;;15.37;50.70;102044.22;10359016;28;20049;-76
2022/10/08 15:48:20;;;;;;;7.63;1.85;;;;;;;14.94;52.68;102045.72;10356175;28;20125;-76
2022/10/08 15:53:20;;;;;;;3.20;1.17;;;;;;;14.30;54.52;102048.66;10343191;28;20037;-76
2022/10/08 15:58:21;;;;;;;8.95;1.20;;;;;;;13.67;57.68;102051.50;10361071;28;20117;-76
2022/10/08 16:03:21;;;;;;;5.53;1.30;;;;;;;13.17;59.03;102059.28;10360951;28;20048;-76
2022/10/08 16:08:22;;;;;;;3.25;0.98;;;;;;;12.78;62.17;102071.16;10359722;28;20030;-76
2022/10/08 16:13:22;;;;;;;5.28;1.20;;;;;;;12.47;63.57;102074.63;10350257;28;20048;-75
2022/10/08 16:18:23;;;;;;;3.85;1.60;;;;;;;12.23;66.42;102073.16;10357211;28;20497;-75
2022/10/08 16:23:24;;;;;;;5.50;1.33;;;;;;;11.97;68.31;102089.06;10358996;28;20163;-75
2022/10/08 16:28:26;;;;;;;10.88;2.28;;;;;;;11.75;69.04;102086.84;10359184;28;20038;-76
2022/10/08 16:33:26;;;;;;;2.95;1.40;;;;;;;11.44;71.49;102098.03;10357160;28;20489;-76
2022/10/08 16:38:28;;;;;;;9.40;1.73;;;;;;;11.02;74.00;102106.75;10355978;28;20133;-76
2022/10/08 16:43:29;;;;;;;11.38;2.58;;;;;;;10.68;77.50;102104.50;10355972;28;20129;-76
2022/10/08 16:48:29;;;;;;;2.92;1.20;;;;;;;10.38;79.13;102111.13;10356043;28;20040;-77
2022/10/08 16:53:30;;;;;;;8.63;1.77;;;;;;;9.94;82.26;102123.84;10356618;28;20042;-76
2022/10/08 16:58:30;;;;;;;13.80;6.18;;;;;;;9.78;85.34;102132.34;10355906;28;20045;-77
2022/10/08 17:03:31;;;;;;;7.15;2.10;;;;;;;9.43;86.35;102135.94;10354662;28;20815;-77
2022/10/08 17:08:32;;;;;;;7.70;1.90;;;;;;;9.19;88.98;102145.47;10357290;28;20038;-77
2022/10/08 17:13:33;;;;;;;16.58;2.70;;;;;;;8.94;91.28;102151.50;10355748;28;20046;-77
2022/10/08 17:18:34;;;;;;;7.90;2.45;;;;;;;8.80;93.55;102151.38;10353921;28;20517;-78
2022/10/08 17:23:37;;;;;;;4.00;1.33;;;;;;;8.59;94.13;102168.94;10355398;28;20034;-76
2022/10/08 17:28:42;;;;;;;4.95;1.92;;;;;;;8.35;95.47;102170.50;10359197;28;20556;-77
2022/10/08 17:33:42;;;;;;;6.13;2.22;;;;;;;8.17;96.30;102176.13;10362400;28;20046;-77
2022/10/08 17:38:44;;;;;;;8.20;2.30;;;;;;;8.16;96.98;102186.44;10364589;28;20034;-77
2022/10/08 17:43:44;;;;;;;6.72;3.10;;;;;;;7.98;97.39;102183.28;10364380;28;20048;-77
2022/10/08 17:48:45;;;;;;;13.60;2.20;;;;;;;7.86;99.11;102201.47;10347891;28;20042;-77
2022/10/08 17:53:59;;;;;;;8.38;2.10;;;;;;;7.70;99.79;102202.84;10347244;28;20128;-77
2022/10/08 17:59:00;;;;;;;23.42;4.65;;;;;;;7.52;99.46;102217.88;10346296;28;20041;-77
2022/10/08 18:04:01;;;;;;;6.22;1.70;;;;;;;7.35;99.61;102220.00;10362444;28;20490;-78
2022/10/08 18:09:04;;;;;;;5.07;1.92;;;;;;;7.22;99.98;102224.97;10364064;28;20588;-77
2022/10/08 18:14:04;;;;;;;11.07;2.45;;;;;;;7.02;100.00;102229.44;10361455;28;20087;-77
2022/10/08 18:19:05;;;;;;;15.93;2.50;;;;;;;6.88;100.00;102240.38;10361585;28;20123;-77
2022/10/08 18:24:06;;;;;;;8.13;2.10;;;;;;;6.78;100.00;102240.38;10363864;28;20058;-78
2022/10/08 18:29:08;;;;;;;10.88;3.42;;;;;;;6.65;100.00;102247.13;10360634;28;20397;-77
2022/10/08 18:34:12;;;;;;;9.27;2.40;;;;;;;6.50;100.00;102253.63;10346072;28;20120;-78
2022/10/08 18:39:14;;;;;;;9.32;2.10;;;;;;;6.44;100.00;102256.63;10359761;28;20472;-78
2022/10/08 18:44:19;;;;;;;15.60;3.67;;;;;;;6.35;100.00;102263.63;10347297;28;20030;-77
2022/10/08 18:49:28;;;;;;;10.77;3.80;;;;;;;6.31;100.00;102265.03;10360260;28;20045;-77
2022/10/08 18:54:29;;;;;;;8.82;2.85;;;;;;;6.16;100.00;102268.09;10363299;28;20198;-77
2022/10/08 18:59:30;;;;;;;10.93;2.45;;;;;;;6.10;100.00;102272.75;10361668;28;20034;-77
2022/10/08 19:04:31;;;;;;;10.80;2.33;;;;;;;6.10;100.00;102274.47;10362053;28;20030;-78
2022/10/08 19:09:31;;;;;;;10.10;3.40;;;;;;;6.11;100.00;102279.78;10361749;28;20038;-77
2022/10/08 19:14:32;;;;;;;7.10;2.40;;;;;;;5.95;100.00;102279.16;10363004;28;20033;-77
2022/10/08 19:19:33;;;;;;;8.23;3.03;;;;;;;5.79;100.00;102276.91;10360496;28;20161;-77
2022/10/08 19:24:33;;;;;;;11.18;3.25;;;;;;;5.71;100.00;102292.72;10362756;28;20411;-77
2022/10/08 19:29:34;;;;;;;7.88;3.28;;;;;;;5.60;100.00;102293.44;10360134;28;20457;-77
2022/10/08 19:34:35;;;;;;;10.68;3.75;;;;;;;5.59;100.00;102300.28;10343103;28;20042;-77
2022/10/08 19:39:36;;;;;;;8.88;3.83;;;;;;;5.54;100.00;102300.66;10357097;28;20041;-77
2022/10/08 19:44:37;;;;;;;14.77;3.35;;;;;;;5.41;100.00;102304.75;10358244;28;20041;-77
2022/10/08 19:49:37;;;;;;;15.43;6.88;;;;;;;5.47;100.00;102313.84;10359463;28;20069;-77
2022/10/08 19:54:38;;;;;;;9.70;2.97;;;;;;;5.55;100.00;102321.56;10357958;28;20125;-78
2022/10/08 19:59:38;;;;;;;14.13;4.60;;;;;;;5.46;100.00;102325.91;10361473;28;20394;-77
2022/10/08 20:04:39;;;;;;;17.95;4.82;;;;;;;5.34;100.00;102319.59;10360272;28;20042;-77
2022/10/08 20:09:39;;;;;;;13.55;4.20;;;;;;;5.27;100.00;102334.59;10361444;28;20076;-77
2022/10/08 20:14:40;;;;;;;12.35;4.03;;;;;;;5.26;100.00;102331.88;10360097;28;20122;-77
2022/10/08 20:19:40;;;;;;;11.93;6.20;;;;;;;5.16;100.00;102330.09;10358899;28;20096;-77
2022/10/08 20:24:41;;;;;;;11.32;3.38;;;;;;;4.97;100.00;102325.78;10342283;28;20100;-77
2022/10/08 20:29:41;;;;;;;10.02;3.63;;;;;;;4.96;100.00;102338.63;10358584;28;20042;-77
2022/10/08 20:34:42;;;;;;;10.48;4.05;;;;;;;4.83;100.00;102340.06;10354193;28;20153;-77
2022/10/08 20:39:42;;;;;;;10.18;3.47;;;;;;;4.87;100.00;102340.38;10357927;28;20042;-77
2022/10/08 20:44:43;;;;;;;15.93;4.63;;;;;;;4.86;100.00;102342.03;10359527;28;20120;-77
2022/10/08 20:49:43;;;;;;;12.48;5.63;;;;;;;4.75;100.00;102347.88;10360144;28;20050;-77
2022/10/08 20:54:44;;;;;;;15.93;5.53;;;;;;;4.74;100.00;102346.97;10326028;28;20053;-77
2022/10/08 20:59:44;;;;;;;11.60;6.25;;;;;;;4.70;100.00;102348.34;10359927;28;20041;-78
2022/10/08 21:04:45;;;;;;;8.40;3.97;;;;;;;4.66;100.00;102343.66;10359117;28;20478;-77
2022/10/08 21:09:47;;;;;;;10.90;4.35;;;;;;;4.67;100.00;102354.94;10357372;28;20112;-77
2022/10/08 21:14:48;;;;;;;13.20;4.53;;;;;;;4.66;100.00;102360.91;10356144;28;20512;-78
2022/10/08 21:19:48;;;;;;;11.93;4.80;;;;;;;4.57;100.00;102363.50;10358839;28;20126;-78
2022/10/08 21:24:49;;;;;;;9.93;4.32;;;;;;;4.41;100.00;102355.94;10356064;28;20103;-78
2022/10/08 21:29:50;;;;;;;11.45;4.90;;;;;;;4.27;100.00;102359.78;10359356;28;20030;-77
2022/10/08 21:34:51;;;;;;;20.15;8.75;;;;;;;4.10;100.00;102361.66;10356230;28;20088;-78
2022/10/08 21:39:51;;;;;;;20.20;6.88;;;;;;;4.00;100.00;102363.19;10358350;28;20137;-77
2022/10/08 21:44:52;;;;;;;13.65;6.28;;;;;;;3.94;100.00;102356.66;10358402;28;20037;-77
2022/10/08 21:49:52;;;;;;;18.60;5.68;;;;;;;3.91;100.00;102361.53;10357551;28;20398;-78
2022/10/08 21:54:53;;;;;;;14.20;7.07;;;;;;;3.79;100.00;102363.81;10357707;28;20052;-77
2022/10/08 21:59:53;;;;;;;13.40;5.53;;;;;;;3.78;100.00;102367.16;10357638;28;20036;-77
2022/10/08 22:04:54;;;;;;;9.10;5.57;;;;;;;3.86;100.00;102367.00;10357834;28;20049;-77
2022/10/08 22:09:54;;;;;;;17.27;8.27;;;;;;;3.74;100.00;102369.31;10358525;28;20113;-77
2022/10/08 22:14:55;;;;;;;13.80;7.78;;;;;;;3.64;100.00;102375.22;10358740;28;20482;-77
2022/10/08 22:19:55;;;;;;;16.38;8.55;;;;;;;3.51;100.00;102368.81;10363768;28;20494;-77
2022/10/08 22:24:56;;;;;;;17.55;8.43;;;;;;;3.48;100.00;102377.97;10364334;28;20041;-76
2022/10/08 22:29:56;;;;;;;14.73;8.68;;;;;;;3.38;100.00;102374.47;10365540;28;20371;-76
2022/10/08 22:34:57;;;;;;;15.82;7.93;;;;;;;3.36;100.00;102363.03;10362641;28;20129;-76
2022/10/08 22:39:57;;;;;;;23.70;11.05;;;;;;;3.37;100.00;102359.69;10348042;28;20496;-77
2022/10/08 22:44:58;;;;;;;20.23;9.68;;;;;;;3.35;100.00;102368.03;10361917;28;20793;-77
2022/10/08 22:49:59;;;;;;;18.25;10.82;;;;;;;3.27;100.00;102362.13;10364242;28;20042;-77
2022/10/08 22:54:59;;;;;;;15.38;8.45;;;;;;;3.11;100.00;102356.13;10361824;28;20103;-77
2022/10/08 23:00:00;;;;;;;21.98;10.70;;;;;;;3.11;100.00;102356.13;10363138;28;20482;-77
2022/10/08 23:05:01;;;;;;;21.05;10.25;;;;;;;3.03;100.00;102351.09;10364241;28;20125;-76
2022/10/08 23:10:01;;;;;;;29.40;10.65;;;;;;;3.14;100.00;102347.00;10361468;28;20046;-77